Time;durP1;ratioP1;P1;durP2;ratioP2;P2;SDS_P1;SDS_P2;PMS_P1;PMS_P2;Temp;Humidity;BMP_temperature;BMP_pressure;BME280_temperature;BME280_humidity;BME280_pressure;Samples;Min_cycle;Max_cycle;Signal;HPM_P1;HPM_P2
2024/03/03 00:01:53;;;;;;;35.10;21.73;;;;;;;7.61;77.61;94653.63;4976082;28;20196;-72
2024/03/03 00:04:18;;;;;;;33.70;23.53;;;;;;;7.73;77.11;94646.84;4982826;28;20436;-71
2024/03/03 00:06:43;;;;;;;31.23;22.57;;;;;;;7.70;76.87;94652.22;4985615;28;20275;-72
2024/03/03 00:09:09;;;;;;;36.10;22.10;;;;;;;7.60;77.38;94652.78;4974372;28;20283;-71
2024/03/03 00:11:34;;;;;;;32.50;22.83;;;;;;;7.67;77.49;94652.41;4975665;28;20180;-72
2024/03/03 00:14:00;;;;;;;30.43;21.37;;;;;;;7.73;77.46;94657.28;4983958;28;20203;-71
2024/03/03 00:16:27;;;;;;;36.00;24.07;;;;;;;7.71;76.67;94643.47;4991105;28;20678;-72
2024/03/03 00:18:53;;;;;;;32.97;22.83;;;;;;;7.62;77.78;94640.47;4987473;28;20591;-70
2024/03/03 00:21:19;;;;;;;31.03;22.30;;;;;;;7.68;77.43;94641.91;4979702;28;20433;-71
2024/03/03 00:23:45;;;;;;;31.93;23.67;;;;;;;7.73;77.07;94639.00;4974824;28;20460;-72
2024/03/03 00:26:11;;;;;;;35.77;20.20;;;;;;;7.29;77.72;94632.91;4984540;28;20181;-70
2024/03/03 00:28:37;;;;;;;36.30;22.37;;;;;;;7.16;78.93;94638.00;4983536;28;20439;-71
2024/03/03 00:31:02;;;;;;;37.37;23.93;;;;;;;7.32;78.71;94643.19;4983508;28;20181;-69
2024/03/03 00:33:28;;;;;;;34.90;23.43;;;;;;;7.09;79.40;94641.09;4978947;28;20200;-71
2024/03/03 00:35:53;;;;;;;30.10;22.70;;;;;;;7.10;79.65;94634.91;4978757;28;20231;-71
2024/03/03 00:38:19;;;;;;;30.63;22.47;;;;;;;7.40;77.52;94627.88;4983909;28;20672;-73
2024/03/03 00:40:44;;;;;;;35.87;23.30;;;;;;;7.37;76.93;94615.03;4990382;28;20176;-71
2024/03/03 00:43:10;;;;;;;34.60;23.30;;;;;;;7.19;78.24;94621.34;4982690;28;20193;-71
2024/03/03 00:45:35;;;;;;;36.53;24.87;;;;;;;7.36;77.34;94618.56;4985295;28;20719;-71
2024/03/03 00:48:00;;;;;;;35.10;22.40;;;;;;;7.30;77.59;94620.69;4981457;28;20662;-72
2024/03/03 00:50:26;;;;;;;34.37;23.70;;;;;;;7.34;78.51;94622.19;4985989;28;20213;-72
2024/03/03 00:52:54;;;;;;;34.23;20.77;;;;;;;7.36;78.03;94625.56;4984062;28;20205;-72
2024/03/03 00:55:23;;;;;;;37.83;23.43;;;;;;;7.46;76.86;94631.06;4982190;28;20182;-70
2024/03/03 00:57:49;;;;;;;37.83;22.00;;;;;;;7.47;77.29;94625.75;4980148;28;20482;-71
2024/03/03 01:00:15;;;;;;;35.43;23.33;;;;;;;7.52;77.00;94628.09;4975778;28;20428;-70
2024/03/03 01:02:40;;;;;;;36.97;24.30;;;;;;;7.38;77.98;94618.47;4975797;28;20198;-71
2024/03/03 01:05:09;;;;;;;35.83;24.60;;;;;;;7.35;77.52;94626.50;4971733;28;20475;-71
2024/03/03 01:07:34;;;;;;;40.23;24.40;;;;;;;7.42;78.24;94617.38;4977847;28;20377;-69
2024/03/03 01:09:59;;;;;;;32.77;22.90;;;;;;;7.47;77.41;94611.88;4981361;28;20543;-71
2024/03/03 01:12:25;;;;;;;33.17;22.70;;;;;;;7.29;78.14;94612.03;4983439;28;20232;-71
2024/03/03 01:14:50;;;;;;;32.00;21.60;;;;;;;7.45;77.69;94616.34;4978907;28;20784;-72
2024/03/03 01:17:16;;;;;;;32.17;22.07;;;;;;;7.45;77.68;94616.34;4969907;28;20925;-71
2024/03/03 01:19:42;;;;;;;34.17;23.33;;;;;;;7.57;76.79;94605.16;4976320;28;20184;-70
2024/03/03 01:22:07;;;;;;;31.73;21.70;;;;;;;7.65;76.64;94608.13;4973154;28;20212;-70
2024/03/03 01:24:33;;;;;;;29.80;22.90;;;;;;;7.40;77.10;94604.41;4982005;28;20855;-72
2024/03/03 01:27:00;;;;;;;36.40;21.50;;;;;;;7.55;77.33;94592.19;4983534;28;20264;-71
2024/03/03 01:29:26;;;;;;;37.90;22.60;;;;;;;7.36;77.76;94595.06;4983805;28;20581;-70
2024/03/03 01:31:52;;;;;;;35.30;23.40;;;;;;;7.28;77.92;94593.88;4973679;28;21000;-70
2024/03/03 01:34:17;;;;;;;40.10;23.07;;;;;;;7.37;78.32;94598.50;4979019;28;20652;-70
2024/03/03 01:36:43;;;;;;;27.07;21.30;;;;;;;7.28;77.69;94597.31;4980316;28;20192;-71
2024/03/03 01:39:09;;;;;;;32.60;21.13;;;;;;;7.05;78.75;94595.22;4978201;28;20315;-71
2024/03/03 01:41:35;;;;;;;32.47;22.27;;;;;;;6.68;80.75;94581.72;4981635;28;20710;-72
2024/03/03 01:44:01;;;;;;;47.20;24.73;;;;;;;6.87;81.21;94573.66;4977612;28;21024;-71
2024/03/03 01:46:26;;;;;;;35.23;23.33;;;;;;;7.05;79.67;94566.53;4980574;28;20435;-72
2024/03/03 01:48:53;;;;;;;34.97;22.57;;;;;;;7.25;78.86;94573.16;4972708;28;20840;-71
2024/03/03 01:51:19;;;;;;;33.60;23.30;;;;;;;6.84;80.50;94573.84;4982768;28;20181;-70
2024/03/03 01:53:48;;;;;;;36.07;22.70;;;;;;;6.72;80.93;94584.06;4980109;28;20469;-73
2024/03/03 01:56:13;;;;;;;35.10;23.10;;;;;;;6.64;81.12;94578.47;4983203;28;20474;-71
2024/03/03 01:58:39;;;;;;;41.30;23.87;;;;;;;6.89;80.72;94571.81;4980407;28;20431;-70
2024/03/03 02:01:06;;;;;;;31.33;20.83;;;;;;;6.61;81.80;94563.00;4967999;28;21004;-70
2024/03/03 02:03:32;;;;;;;33.30;23.50;;;;;;;6.51;82.31;94567.06;4982212;28;21176;-70
2024/03/03 02:05:58;;;;;;;34.07;23.67;;;;;;;6.48;82.55;94569.84;4980771;28;20436;-72
2024/03/03 02:08:24;;;;;;;30.10;21.70;;;;;;;6.83;81.11;94562.59;4977709;28;20491;-73
2024/03/03 02:10:50;;;;;;;34.23;22.47;;;;;;;6.95;80.11;94564.47;4986275;28;20467;-72
2024/03/03 02:13:15;;;;;;;31.90;22.47;;;;;;;7.18;78.68;94562.25;4985674;28;20202;-71
2024/03/03 02:15:41;;;;;;;35.50;22.10;;;;;;;6.95;80.21;94559.25;4990489;28;20238;-72
2024/03/03 02:18:07;;;;;;;29.77;20.80;;;;;;;7.24;79.06;94567.13;4986731;28;20177;-72
2024/03/03 02:20:32;;;;;;;35.20;23.80;;;;;;;6.96;80.06;94558.31;5005706;28;20200;-71
2024/03/03 02:22:57;;;;;;;35.80;22.63;;;;;;;6.88;80.18;94549.28;5007999;28;20454;-73
2024/03/03 02:25:23;;;;;;;32.57;22.40;;;;;;;6.94;80.63;94561.94;5002919;28;20192;-69
2024/03/03 02:27:48;;;;;;;35.60;22.13;;;;;;;6.70;80.81;94556.41;5005190;28;20173;-72
2024/03/03 02:30:15;;;;;;;33.93;22.03;;;;;;;6.90;80.80;94566.53;5007157;28;20332;-72
2024/03/03 02:32:40;;;;;;;32.53;22.67;;;;;;;6.91;80.11;94562.97;5005569;28;20196;-73
2024/03/03 02:35:06;;;;;;;37.00;23.17;;;;;;;7.19;78.98;94569.16;4988417;28;20495;-72
2024/03/03 02:37:32;;;;;;;31.53;21.47;;;;;;;7.15;79.08;94567.66;4983917;28;20193;-71
2024/03/03 02:39:57;;;;;;;31.00;21.70;;;;;;;7.19;78.74;94561.34;4974144;28;20184;-70
2024/03/03 02:42:22;;;;;;;32.97;21.10;;;;;;;7.40;78.06;94556.59;4982427;28;20209;-72
2024/03/03 02:44:48;;;;;;;34.17;20.97;;;;;;;7.25;78.70;94557.50;4977400;28;20300;-71
2024/03/03 02:47:13;;;;;;;29.93;20.30;;;;;;;7.16;78.53;94556.31;4980185;28;20208;-71
2024/03/03 02:49:39;;;;;;;32.87;21.27;;;;;;;7.11;77.92;94558.34;4980939;28;20907;-72
2024/03/03 02:52:05;;;;;;;32.97;21.07;;;;;;;7.02;79.40;94562.34;4977307;28;20208;-72
2024/03/03 02:54:30;;;;;;;29.20;19.57;;;;;;;6.92;79.58;94564.66;4983544;28;20173;-70
2024/03/03 02:56:56;;;;;;;34.50;22.50;;;;;;;6.93;78.96;94555.91;4982080;28;20592;-73
2024/03/03 02:59:21;;;;;;;34.03;21.77;;;;;;;7.07;79.07;94557.69;4985169;28;20837;-71
2024/03/03 03:01:47;;;;;;;30.97;21.30;;;;;;;7.19;78.04;94558.72;4984664;28;20177;-70
2024/03/03 03:04:12;;;;;;;28.43;19.30;;;;;;;6.95;79.84;94548.84;4987136;28;20252;-70
2024/03/03 03:06:37;;;;;;;35.13;21.77;;;;;;;7.24;78.12;94551.47;4983611;28;20181;-70
2024/03/03 03:09:03;;;;;;;26.93;19.57;;;;;;;6.87;79.90;94558.88;4972080;28;20224;-70
2024/03/03 03:11:29;;;;;;;28.73;20.67;;;;;;;6.86;79.72;94565.03;4982872;28;20264;-72
2024/03/03 03:13:55;;;;;;;30.67;20.90;;;;;;;7.05;78.59;94566.53;4978489;28;20947;-72
2024/03/03 03:16:20;;;;;;;34.70;23.57;;;;;;;6.73;79.50;94562.31;4979694;28;20189;-71
2024/03/03 03:18:46;;;;;;;36.43;21.53;;;;;;;6.77;80.36;94561.16;4986924;28;20181;-71
2024/03/03 03:21:11;;;;;;;30.40;21.47;;;;;;;6.70;80.23;94566.84;4982173;28;20177;-72
2024/03/03 03:23:37;;;;;;;42.63;22.10;;;;;;;7.08;78.72;94551.53;4962395;28;20215;-70
2024/03/03 03:26:03;;;;;;;38.70;22.47;;;;;;;7.25;78.07;94557.50;4979687;28;20652;-71
2024/03/03 03:28:28;;;;;;;32.97;21.47;;;;;;;7.26;77.11;94560.03;4989309;28;20185;-70
2024/03/03 03:30:54;;;;;;;31.50;21.27;;;;;;;7.20;77.87;94568.22;4986830;28;20216;-70
2024/03/03 03:33:19;;;;;;;35.17;22.40;;;;;;;6.72;79.22;94576.25;5007539;28;20253;-72
2024/03/03 03:35:45;;;;;;;30.27;21.40;;;;;;;6.71;79.78;94563.31;4998164;28;20951;-70
2024/03/03 03:38:10;;;;;;;36.87;22.10;;;;;;;6.60;80.25;94565.69;4978430;28;20196;-71
2024/03/03 03:40:35;;;;;;;34.97;22.83;;;;;;;6.51;81.05;94577.50;4988407;28;20203;-69
2024/03/03 03:43:05;;;;;;;32.87;21.40;;;;;;;6.31;81.57;94570.81;4983178;28;20248;-73
2024/03/03 03:45:31;;;;;;;32.60;23.00;;;;;;;6.10;82.55;94568.47;4984131;28;20203;-71
2024/03/03 03:47:56;;;;;;;38.47;21.97;;;;;;;6.50;80.69;94561.03;4987437;28;20431;-71
2024/03/03 03:50:22;;;;;;;33.97;23.87;;;;;;;6.38;81.38;94577.34;4985804;28;20300;-71
2024/03/03 03:52:47;;;;;;;36.10;23.17;;;;;;;6.58;80.40;94566.63;4974105;28;20205;-74
2024/03/03 03:55:13;;;;;;;33.43;22.90;;;;;;;6.66;80.52;94565.34;4978745;28;20205;-71
2024/03/03 03:57:38;;;;;;;35.97;23.20;;;;;;;6.91;79.14;94568.19;4983152;28;20192;-71
2024/03/03 04:00:05;;;;;;;33.00;20.80;;;;;;;6.87;79.19;94579.72;4968652;28;20179;-70
2024/03/03 04:02:31;;;;;;;31.30;22.37;;;;;;;6.86;78.05;94577.22;4984548;28;20278;-71
2024/03/03 04:04:57;;;;;;;32.60;22.60;;;;;;;6.51;81.02;94580.94;4956731;28;20968;-69
2024/03/03 04:07:22;;;;;;;35.90;22.73;;;;;;;6.43;80.87;94582.31;4972076;28;20197;-71
2024/03/03 04:09:49;;;;;;;36.13;22.90;;;;;;;6.25;81.65;94584.16;4981080;28;20525;-72
2024/03/03 04:12:14;;;;;;;37.87;23.77;;;;;;;6.12;82.58;94582.25;4986361;28;20601;-71
2024/03/03 04:14:40;;;;;;;41.93;25.17;;;;;;;6.00;83.17;94572.53;4976892;28;20433;-71
2024/03/03 04:17:06;;;;;;;34.93;26.50;;;;;;;6.02;83.10;94565.44;4984970;28;20177;-70
2024/03/03 04:19:31;;;;;;;36.20;23.43;;;;;;;6.18;82.60;94564.59;4977683;28;20180;-71
2024/03/03 04:21:57;;;;;;;38.63;23.47;;;;;;;6.10;82.62;94570.25;4975947;28;20441;-72
2024/03/03 04:24:22;;;;;;;36.33;24.13;;;;;;;5.75;84.64;94573.00;4981105;28;20192;-72
2024/03/03 04:26:48;;;;;;;40.63;25.43;;;;;;;5.84;84.22;94582.91;4983561;28;20211;-70
2024/03/03 04:29:14;;;;;;;38.50;23.97;;;;;;;6.02;83.48;94564.63;4974815;28;20224;-71
2024/03/03 04:31:43;;;;;;;46.03;26.07;;;;;;;5.89;84.05;94567.03;4983432;28;20219;-72
2024/03/03 04:34:10;;;;;;;37.40;24.63;;;;;;;5.88;84.02;94578.34;4973759;28;20971;-71
2024/03/03 04:36:35;;;;;;;41.97;26.03;;;;;;;5.88;84.29;94583.56;4980307;28;20446;-71
2024/03/03 04:39:01;;;;;;;40.57;25.30;;;;;;;5.44;86.37;94577.25;4977321;28;20443;-73
2024/03/03 04:41:28;;;;;;;48.73;26.43;;;;;;;5.68;85.44;94577.69;4983187;28;20248;-72
2024/03/03 04:43:53;;;;;;;46.73;27.03;;;;;;;5.92;83.90;94574.66;4981599;28;20236;-71
2024/03/03 04:46:19;;;;;;;42.13;26.27;;;;;;;5.75;85.16;94587.78;4984563;28;20482;-72
2024/03/03 04:48:45;;;;;;;44.40;26.20;;;;;;;5.53;85.50;94583.72;4976791;28;20192;-70
2024/03/03 04:51:10;;;;;;;48.10;25.97;;;;;;;5.83;85.57;94575.16;4981212;28;20193;-72
2024/03/03 04:53:35;;;;;;;46.40;26.10;;;;;;;5.72;85.10;94579.22;4987179;28;20201;-72
2024/03/03 04:56:01;;;;;;;41.97;26.67;;;;;;;5.98;84.07;94574.38;4993627;28;20633;-70
2024/03/03 04:58:27;;;;;;;50.97;26.07;;;;;;;5.91;83.92;94573.84;4987472;28;20215;-72
2024/03/03 05:00:52;;;;;;;42.40;26.43;;;;;;;5.90;83.91;94571.31;4976955;28;20552;-70
2024/03/03 05:03:18;;;;;;;46.10;26.10;;;;;;;5.65;84.82;94575.25;4979428;28;20200;-70
2024/03/03 05:05:43;;;;;;;46.30;27.43;;;;;;;5.87;84.90;94577.53;4979944;28;20177;-70
2024/03/03 05:08:09;;;;;;;37.37;25.73;;;;;;;6.12;82.92;94577.06;4984154;28;20192;-72
2024/03/03 05:10:35;;;;;;;41.97;24.73;;;;;;;5.35;85.91;94575.13;4982175;28;20226;-70
2024/03/03 05:13:00;;;;;;;48.33;25.10;;;;;;;5.21;87.07;94580.22;4981249;28;20463;-73
2024/03/03 05:15:26;;;;;;;40.60;24.30;;;;;;;5.05;88.01;94585.34;4983453;28;20189;-69
2024/03/03 05:17:51;;;;;;;45.40;26.00;;;;;;;4.87;88.69;94577.59;4976705;28;20687;-69
2024/03/03 05:20:16;;;;;;;45.03;25.80;;;;;;;4.77;90.22;94578.97;4974741;28;20282;-72
2024/03/03 05:22:42;;;;;;;47.70;27.37;;;;;;;5.05;88.33;94585.34;4979647;28;20208;-70
2024/03/03 05:25:09;;;;;;;59.43;28.43;;;;;;;4.72;89.55;94578.34;4980746;28;20189;-71
2024/03/03 05:27:35;;;;;;;83.67;30.57;;;;;;;4.93;88.67;94592.03;4984189;28;20283;-71
2024/03/03 05:30:00;;;;;;;43.17;25.03;;;;;;;5.11;88.08;94590.25;4964821;28;20568;-71
2024/03/03 05:32:26;;;;;;;53.37;26.47;;;;;;;4.63;89.74;94586.59;4985542;28;20216;-70
2024/03/03 05:34:52;;;;;;;52.77;25.90;;;;;;;4.57;90.98;94594.72;4983333;28;20564;-72
2024/03/03 05:37:17;;;;;;;48.33;26.73;;;;;;;4.66;90.18;94596.84;4989182;28;20451;-70
2024/03/03 05:39:43;;;;;;;52.07;29.40;;;;;;;5.00;88.50;94595.16;4989611;28;20520;-71
2024/03/03 05:42:08;;;;;;;45.90;26.90;;;;;;;4.91;88.76;94595.63;4990272;28;20193;-71
2024/03/03 05:44:34;;;;;;;46.77;27.37;;;;;;;5.50;85.62;94587.34;5007721;28;20625;-71
2024/03/03 05:47:00;;;;;;;44.83;26.17;;;;;;;5.40;86.58;94585.28;5000522;28;20200;-72
2024/03/03 05:49:25;;;;;;;41.83;24.37;;;;;;;5.83;83.81;94583.81;5008790;28;20204;-72
2024/03/03 05:51:50;;;;;;;42.03;24.17;;;;;;;5.92;82.94;94588.53;5008208;28;20181;-72
2024/03/03 05:54:16;;;;;;;43.80;22.73;;;;;;;5.80;82.63;94586.59;4996485;28;20247;-72
2024/03/03 05:56:41;;;;;;;35.53;22.00;;;;;;;6.06;81.73;94587.78;4983030;28;20259;-72
2024/03/03 05:59:07;;;;;;;37.80;22.33;;;;;;;5.35;83.98;94590.72;4980696;28;20884;-73
2024/03/03 06:01:32;;;;;;;38.37;22.57;;;;;;;5.27;85.32;94604.13;4976744;28;20181;-70
2024/03/03 06:03:58;;;;;;;35.10;23.27;;;;;;;5.09;86.73;94602.47;4979084;28;20302;-72
2024/03/03 06:06:23;;;;;;;42.23;23.50;;;;;;;5.17;85.82;94595.13;4978637;28;20191;-71
2024/03/03 06:08:51;;;;;;;51.17;24.00;;;;;;;5.08;86.86;94604.25;4983247;28;20558;-72
2024/03/03 06:11:18;;;;;;;57.57;23.00;;;;;;;4.63;87.81;94609.97;4975423;28;20260;-72
2024/03/03 06:13:44;;;;;;;51.03;24.27;;;;;;;4.71;88.22;94609.63;4980632;28;20448;-70
2024/03/03 06:16:09;;;;;;;40.20;23.80;;;;;;;4.84;88.31;94621.06;4975247;28;20456;-70
2024/03/03 06:18:35;;;;;;;37.30;23.60;;;;;;;4.95;87.93;94616.19;4977272;28;20552;-70
2024/03/03 06:21:00;;;;;;;91.33;25.90;;;;;;;4.72;86.95;94622.53;4958944;28;20692;-71
2024/03/03 06:23:26;;;;;;;54.63;23.53;;;;;;;4.23;89.65;94619.72;4976834;28;20681;-70
2024/03/03 06:25:51;;;;;;;40.30;23.23;;;;;;;4.70;89.31;94608.78;4979068;28;20246;-70
2024/03/03 06:28:17;;;;;;;41.90;22.50;;;;;;;4.47;88.58;94599.53;4980237;28;20200;-69
2024/03/03 06:30:43;;;;;;;67.13;23.83;;;;;;;4.14;89.68;94597.63;4986511;28;20216;-71
2024/03/03 06:33:10;;;;;;;54.37;22.10;;;;;;;4.17;90.31;94599.25;4981352;28;20323;-72
2024/03/03 06:35:36;;;;;;;60.93;24.23;;;;;;;4.60;88.15;94602.34;4972896;28;20182;-72
2024/03/03 06:38:02;;;;;;;39.47;22.20;;;;;;;4.79;87.78;94604.88;4987458;28;20907;-71
2024/03/03 06:40:27;;;;;;;48.60;21.60;;;;;;;4.53;87.93;94598.38;4985134;28;20176;-72
2024/03/03 06:42:52;;;;;;;44.20;22.80;;;;;;;4.52;88.47;94613.13;4983511;28;20453;-71
2024/03/03 06:45:18;;;;;;;37.70;20.27;;;;;;;4.18;89.62;94608.69;4978632;28;20180;-71
2024/03/03 06:47:43;;;;;;;49.53;23.00;;;;;;;4.02;90.73;94608.59;4970130;28;20268;-71
2024/03/03 06:50:09;;;;;;;38.90;23.33;;;;;;;4.26;90.94;94609.19;4978714;28;20211;-71
2024/03/03 06:52:34;;;;;;;38.40;22.87;;;;;;;4.45;89.60;94612.56;4965025;28;20280;-71
2024/03/03 06:55:00;;;;;;;44.27;21.40;;;;;;;4.51;88.39;94619.22;4981568;28;20188;-70
2024/03/03 06:57:26;;;;;;;34.47;21.47;;;;;;;4.65;87.73;94616.81;4984429;28;20184;-71
2024/03/03 06:59:55;;;;;;;43.20;23.20;;;;;;;4.67;86.79;94614.13;4986668;28;20185;-70
2024/03/03 07:02:20;;;;;;;31.13;20.53;;;;;;;5.14;85.25;94610.88;4978534;28;20240;-71
2024/03/03 07:04:46;;;;;;;31.00;18.40;;;;;;;4.87;85.57;94616.56;4982077;28;20514;-69
2024/03/03 07:07:12;;;;;;;48.37;20.87;;;;;;;4.71;86.37;94614.81;4977269;28;20220;-70
2024/03/03 07:09:37;;;;;;;35.20;20.33;;;;;;;4.79;87.39;94617.88;4981134;28;20307;-72
2024/03/03 07:12:03;;;;;;;35.43;20.37;;;;;;;5.01;86.47;94622.84;4985649;28;21156;-71
2024/03/03 07:14:30;;;;;;;32.57;19.50;;;;;;;4.99;85.77;94615.13;4975761;28;20188;-71
2024/03/03 07:16:56;;;;;;;35.13;17.90;;;;;;;4.76;86.05;94625.81;4980357;28;20766;-72
2024/03/03 07:19:21;;;;;;;30.87;18.67;;;;;;;4.30;87.13;94625.44;4984245;28;20440;-72
2024/03/03 07:21:47;;;;;;;50.50;22.00;;;;;;;4.07;88.86;94629.16;4985782;28;20193;-70
2024/03/03 07:24:12;;;;;;;34.63;19.20;;;;;;;4.03;89.59;94624.09;4987794;28;20435;-70
2024/03/03 07:26:38;;;;;;;59.10;23.43;;;;;;;3.86;90.17;94625.81;4972919;28;20551;-70
2024/03/03 07:29:03;;;;;;;36.20;18.77;;;;;;;3.98;90.01;94623.47;4982654;28;20201;-71
2024/03/03 07:31:30;;;;;;;33.40;20.60;;;;;;;4.21;87.31;94618.97;4987645;28;20192;-71
2024/03/03 07:33:56;;;;;;;32.93;19.83;;;;;;;4.15;88.04;94622.66;4985411;28;20204;-71
2024/03/03 07:36:21;;;;;;;29.93;17.37;;;;;;;4.06;88.70;94622.25;4983273;28;20991;-70
2024/03/03 07:38:47;;;;;;;30.23;18.30;;;;;;;4.09;89.20;94619.56;4985154;28;20483;-70
2024/03/03 07:41:16;;;;;;;38.83;18.63;;;;;;;3.90;88.32;94628.19;4979540;28;20607;-70
2024/03/03 07:43:41;;;;;;;34.97;18.03;;;;;;;4.09;87.95;94612.59;4977588;28;20463;-71
2024/03/03 07:46:07;;;;;;;26.80;17.50;;;;;;;4.52;85.62;94609.69;4978549;28;20181;-72
2024/03/03 07:48:33;;;;;;;26.80;17.60;;;;;;;4.63;86.02;94609.97;4987870;28;20501;-71
2024/03/03 07:51:02;;;;;;;28.53;18.00;;;;;;;4.51;85.64;94608.00;4987133;28;20288;-71
2024/03/03 07:53:28;;;;;;;26.57;17.53;;;;;;;4.49;85.01;94615.88;4983754;28;20264;-71
2024/03/03 07:55:53;;;;;;;21.50;16.33;;;;;;;4.49;84.62;94615.00;4982328;28;20471;-70
2024/03/03 07:58:19;;;;;;;24.40;17.50;;;;;;;4.65;84.05;94619.41;4995396;28;20188;-74
2024/03/03 08:00:44;;;;;;;23.30;15.77;;;;;;;4.12;85.66;94617.63;4992170;28;20183;-72
2024/03/03 08:03:09;;;;;;;23.10;15.53;;;;;;;4.54;85.33;94605.25;4978901;28;20296;-70
2024/03/03 08:05:35;;;;;;;21.87;16.60;;;;;;;5.04;82.43;94601.88;4998525;28;20197;-70
2024/03/03 08:08:02;;;;;;;29.33;16.40;;;;;;;4.59;83.38;94616.25;4993339;28;20591;-72
2024/03/03 08:10:27;;;;;;;24.47;16.60;;;;;;;4.37;85.67;94609.53;4997706;28;20700;-72
2024/03/03 08:12:54;;;;;;;27.07;17.30;;;;;;;4.41;86.39;94613.63;4998005;28;20459;-71
2024/03/03 08:15:20;;;;;;;40.37;17.70;;;;;;;4.58;84.81;94604.19;4986397;28;20200;-72
2024/03/03 08:17:45;;;;;;;25.80;16.57;;;;;;;4.63;84.86;94616.03;4986033;28;20444;-70
2024/03/03 08:20:11;;;;;;;23.20;16.87;;;;;;;4.49;85.38;94617.63;4986694;28;20462;-72
2024/03/03 08:22:43;;;;;;;27.87;18.40;;;;;;;4.55;85.45;94614.72;4977084;28;20890;-72
2024/03/03 08:25:12;;;;;;;23.23;16.80;;;;;;;4.88;84.82;94617.41;4975654;28;20173;-71
2024/03/03 08:27:39;;;;;;;23.93;18.30;;;;;;;4.36;86.43;94610.41;4987301;28;20431;-72
2024/03/03 08:30:05;;;;;;;28.70;18.70;;;;;;;4.80;85.70;94614.38;4986071;28;20475;-70
2024/03/03 08:32:32;;;;;;;24.33;16.23;;;;;;;5.05;83.58;94609.59;4982275;28;20522;-72
2024/03/03 08:34:58;;;;;;;26.10;17.47;;;;;;;4.55;86.62;94609.53;4980344;28;20527;-72
2024/03/03 08:37:24;;;;;;;27.37;18.37;;;;;;;4.37;87.52;94621.66;4986548;28;20543;-72
2024/03/03 08:39:49;;;;;;;24.63;17.00;;;;;;;4.36;87.01;94620.81;4985827;28;20526;-74
2024/03/03 08:42:14;;;;;;;26.37;18.30;;;;;;;4.01;89.33;94630.28;4981040;28;20545;-71
2024/03/03 08:44:40;;;;;;;29.50;18.67;;;;;;;4.18;88.52;94621.69;4982479;28;20182;-72
2024/03/03 08:47:05;;;;;;;26.47;19.23;;;;;;;4.18;87.97;94611.28;4987273;28;20216;-71
2024/03/03 08:49:32;;;;;;;28.50;18.87;;;;;;;4.18;87.38;94617.34;4988557;28;20205;-70
2024/03/03 08:51:58;;;;;;;28.50;19.40;;;;;;;4.07;87.41;94618.78;4993802;28;20529;-71
2024/03/03 08:54:23;;;;;;;29.33;18.57;;;;;;;4.38;87.19;94612.97;4994536;28;20430;-70
2024/03/03 08:56:49;;;;;;;25.23;17.60;;;;;;;4.90;84.22;94619.94;4985537;28;20177;-71
2024/03/03 08:59:14;;;;;;;42.30;20.60;;;;;;;5.26;82.56;94619.81;4953077;28;20335;-72
2024/03/03 09:01:39;;;;;;;36.83;17.50;;;;;;;4.51;85.00;94611.41;4992677;28;20207;-70
2024/03/03 09:04:05;;;;;;;24.10;17.50;;;;;;;4.71;85.79;94607.84;4993125;28;20570;-71
2024/03/03 09:06:30;;;;;;;29.50;17.53;;;;;;;5.12;84.20;94617.09;4986368;28;20948;-70
2024/03/03 09:08:56;;;;;;;27.60;17.83;;;;;;;5.16;83.36;94616.00;4983757;28;20556;-71
2024/03/03 09:11:21;;;;;;;25.43;18.27;;;;;;;5.56;81.75;94603.53;4986778;28;20181;-72
2024/03/03 09:13:47;;;;;;;28.27;16.87;;;;;;;5.50;81.09;94604.69;4982907;28;20295;-70
2024/03/03 09:16:12;;;;;;;24.70;17.50;;;;;;;5.69;80.59;94608.00;4988453;28;20188;-69
2024/03/03 09:18:38;;;;;;;31.77;17.10;;;;;;;5.89;79.17;94622.53;4984132;28;20205;-71
2024/03/03 09:21:07;;;;;;;27.17;16.67;;;;;;;5.83;79.20;94614.22;4988044;28;20199;-69
2024/03/03 09:23:33;;;;;;;26.80;17.00;;;;;;;5.98;78.77;94610.81;4992333;28;20293;-71
2024/03/03 09:25:59;;;;;;;29.87;16.07;;;;;;;5.81;78.87;94613.44;4987120;28;20517;-71
2024/03/03 09:28:25;;;;;;;25.30;17.23;;;;;;;5.80;79.36;94615.22;4984836;28;20315;-69
2024/03/03 09:30:50;;;;;;;23.90;16.60;;;;;;;5.59;80.28;94611.16;4979587;28;20562;-73
2024/03/03 09:33:16;;;;;;;28.33;17.60;;;;;;;5.73;80.24;94604.28;4983825;28;20707;-72
2024/03/03 09:35:41;;;;;;;20.80;14.30;;;;;;;5.87;79.30;94600.13;4979294;28;20196;-68
2024/03/03 09:38:07;;;;;;;25.83;16.70;;;;;;;5.56;80.24;94612.16;4977150;28;20181;-71
2024/03/03 09:40:37;;;;;;;26.23;16.07;;;;;;;5.32;81.62;94611.72;4983978;28;20180;-71
2024/03/03 09:43:06;;;;;;;29.70;16.70;;;;;;;5.32;81.75;94609.09;4997410;28;20234;-71
2024/03/03 09:45:32;;;;;;;21.27;14.70;;;;;;;5.38;81.72;94605.34;4985514;28;21151;-70
2024/03/03 09:48:02;;;;;;;20.70;15.80;;;;;;;5.49;80.50;94610.81;4985067;28;20435;-73
2024/03/03 09:50:28;;;;;;;28.73;18.87;;;;;;;5.64;80.95;94598.75;4983983;28;20219;-70
2024/03/03 09:52:56;;;;;;;24.80;18.10;;;;;;;5.41;81.75;94605.16;4978443;28;20451;-69
2024/03/03 09:55:23;;;;;;;25.43;15.60;;;;;;;5.27;81.67;94611.94;4981436;28;20268;-70
2024/03/03 09:57:49;;;;;;;24.40;17.43;;;;;;;5.22;83.20;94611.34;4992097;28;20431;-71
2024/03/03 10:00:15;;;;;;;26.30;18.17;;;;;;;5.25;82.01;94607.75;4999585;28;20799;-71
2024/03/03 10:02:42;;;;;;;29.13;17.60;;;;;;;5.70;81.42;94601.88;4999208;28;20440;-70
2024/03/03 10:05:08;;;;;;;28.30;17.80;;;;;;;6.06;79.46;94593.00;4997715;28;20546;-71
2024/03/03 10:07:40;;;;;;;22.43;16.63;;;;;;;5.97;79.49;94596.09;4980450;28;20432;-70
2024/03/03 10:10:08;;;;;;;22.70;15.60;;;;;;;6.27;78.26;94597.97;4986277;28;20513;-71
2024/03/03 10:12:34;;;;;;;27.83;16.63;;;;;;;6.41;77.49;94597.19;4987249;28;20444;-72
2024/03/03 10:15:01;;;;;;;23.80;16.90;;;;;;;6.59;76.66;94601.34;4990343;28;20507;-70
2024/03/03 10:17:27;;;;;;;26.03;16.37;;;;;;;6.28;78.13;94592.66;4986606;28;20424;-70
2024/03/03 10:19:59;;;;;;;27.50;17.00;;;;;;;6.41;77.91;94598.03;4987377;28;20436;-69
2024/03/03 10:22:25;;;;;;;21.93;15.63;;;;;;;5.96;78.60;94599.66;4988651;28;20474;-71
2024/03/03 10:25:05;;;;;;;23.07;15.40;;;;;;;6.24;78.52;94604.19;4986148;28;20443;-72
2024/03/03 10:27:31;;;;;;;22.87;15.60;;;;;;;5.99;78.46;94607.28;4988798;28;20177;-74
2024/03/03 10:30:04;;;;;;;21.23;15.17;;;;;;;6.63;76.78;94602.84;5001060;28;20459;-70
2024/03/03 10:32:29;;;;;;;22.20;15.70;;;;;;;6.41;76.99;94598.03;4999859;28;20193;-70
2024/03/03 10:35:00;;;;;;;21.70;15.87;;;;;;;6.45;76.74;94594.31;4989362;28;20435;-71
2024/03/03 10:37:27;;;;;;;25.27;15.83;;;;;;;6.55;77.67;94597.25;4990542;28;20196;-71
2024/03/03 10:39:53;;;;;;;23.73;17.10;;;;;;;6.76;75.97;94593.41;4992449;28;20447;-71
2024/03/03 10:42:18;;;;;;;21.93;16.50;;;;;;;6.99;75.34;94581.63;4990194;28;20455;-71
2024/03/03 10:44:44;;;;;;;24.17;16.80;;;;;;;6.93;75.36;94583.75;4974071;28;20827;-71
2024/03/03 10:47:13;;;;;;;27.30;19.83;;;;;;;7.25;74.19;94581.00;4979606;28;20176;-73
2024/03/03 10:49:40;;;;;;;21.10;16.77;;;;;;;7.45;73.95;94580.63;4985497;28;20472;-71
2024/03/03 10:52:09;;;;;;;23.60;17.27;;;;;;;8.01;72.57;94575.47;4988227;28;20436;-72
2024/03/03 10:54:35;;;;;;;24.67;16.73;;;;;;;8.39;71.64;94569.56;4989193;28;20455;-71
2024/03/03 10:57:01;;;;;;;24.80;16.27;;;;;;;7.87;71.22;94565.03;4982031;28;20455;-71
2024/03/03 10:59:34;;;;;;;19.80;14.80;;;;;;;7.95;71.10;94561.00;4990909;28;20260;-69
2024/03/03 11:02:01;;;;;;;21.90;15.77;;;;;;;7.95;71.18;94560.16;4987785;28;20547;-70
2024/03/03 11:04:31;;;;;;;21.30;16.13;;;;;;;8.26;69.12;94559.88;4989368;28;20439;-72
2024/03/03 11:06:59;;;;;;;23.13;15.67;;;;;;;9.26;66.92;94550.69;4986490;28;20528;-71
2024/03/03 11:09:25;;;;;;;21.30;15.87;;;;;;;8.42;69.12;94549.31;4986758;28;20498;-71
2024/03/03 11:12:00;;;;;;;23.20;17.07;;;;;;;8.56;69.63;94547.56;4981087;28;20457;-71
2024/03/03 11:14:42;;;;;;;111.10;27.03;;;;;;;9.32;67.06;94547.66;4988079;28;21046;-71
2024/03/03 11:17:11;;;;;;;30.27;17.67;;;;;;;9.92;64.89;94532.16;4987786;28;20427;-71
2024/03/03 11:19:43;;;;;;;50.10;18.00;;;;;;;9.87;64.22;94531.66;4990657;28;20432;-71